Time;durP1;ratioP1;P1;durP2;ratioP2;P2;SDS_P1;SDS_P2;PMS_P1;PMS_P2;Temp;Humidity;BMP_temperature;BMP_pressure;BME280_temperature;BME280_humidity;BME280_pressure;Samples;Min_cycle;Max_cycle;Signal;HPM_P1;HPM_P2
2023/07/24 00:00:15;;;;;;;1.08;0.68;;;20.80;83.40;;;;;;5074495;28;20021;-61
2023/07/24 00:02:41;;;;;;;1.33;0.43;;;20.80;83.30;;;;;;5083502;28;20032;-61
2023/07/24 00:05:07;;;;;;;0.40;0.40;;;20.80;83.50;;;;;;5073653;28;20081;-62
2023/07/24 00:07:32;;;;;;;0.77;0.70;;;20.70;83.50;;;;;;5076700;28;20055;-61
2023/07/24 00:09:58;;;;;;;0.47;0.40;;;20.70;84.10;;;;;;5083541;28;20471;-62
2023/07/24 00:12:24;;;;;;;1.63;0.90;;;20.70;83.40;;;;;;5076922;28;20028;-62
2023/07/24 00:14:51;;;;;;;0.60;0.60;;;20.80;83.40;;;;;;5077396;28;20157;-62
2023/07/24 00:17:17;;;;;;;1.20;0.88;;;20.80;83.90;;;;;;5082049;28;20551;-62
2023/07/24 00:19:42;;;;;;;0.75;0.47;;;20.70;83.20;;;;;;5083265;28;20028;-61
2023/07/24 00:22:08;;;;;;;0.45;0.45;;;20.70;83.30;;;;;;5082850;28;20052;-62
2023/07/24 00:24:34;;;;;;;0.68;0.50;;;20.80;83.20;;;;;;5086379;28;20032;-61
2023/07/24 00:27:00;;;;;;;0.60;0.60;;;20.80;83.20;;;;;;5081463;28;20042;-61
2023/07/24 00:29:25;;;;;;;0.40;0.40;;;20.80;83.20;;;;;;5083142;28;20036;-61
2023/07/24 00:31:51;;;;;;;0.50;0.50;;;20.70;83.30;;;;;;5080813;28;20032;-61
2023/07/24 00:34:16;;;;;;;0.30;0.30;;;20.70;83.30;;;;;;5085628;28;20044;-62
2023/07/24 00:36:42;;;;;;;0.65;0.65;;;20.70;83.30;;;;;;5085019;28;20537;-61
2023/07/24 00:39:08;;;;;;;0.52;0.50;;;20.70;83.30;;;;;;5084746;28;20449;-61
2023/07/24 00:41:33;;;;;;;0.77;0.60;;;20.70;83.30;;;;;;5075717;28;20029;-62
2023/07/24 00:43:59;;;;;;;1.10;0.60;;;20.70;83.30;;;;;;5080291;28;20032;-61
2023/07/24 00:46:25;;;;;;;0.68;0.57;;;20.70;83.30;;;;;;5073860;28;20088;-61
2023/07/24 00:48:53;;;;;;;0.90;0.73;;;20.70;83.40;;;;;;5082763;28;20024;-61
2023/07/24 00:51:19;;;;;;;0.57;0.57;;;20.70;83.40;;;;;;5082884;28;20047;-61
2023/07/24 00:53:47;;;;;;;1.80;0.68;;;20.60;83.30;;;;;;5079488;28;20379;-61
2023/07/24 00:56:13;;;;;;;2.05;0.45;;;20.60;83.30;;;;;;5078424;28;20024;-61
2023/07/24 00:58:39;;;;;;;0.65;0.50;;;20.70;83.30;;;;;;5082703;28;20028;-62
2023/07/24 01:01:05;;;;;;;1.05;0.50;;;20.60;83.30;;;;;;5083049;28;20059;-62
2023/07/24 01:03:35;;;;;;;0.40;0.40;;;20.60;83.30;;;;;;5085848;28;20055;-62
2023/07/24 01:06:04;;;;;;;1.58;0.68;;;20.60;83.20;;;;;;5072295;28;20094;-62
2023/07/24 01:08:29;;;;;;;0.85;0.52;;;20.60;83.20;;;;;;5080997;28;20024;-61
2023/07/24 01:11:06;;;;;;;0.30;0.30;;;20.60;83.10;;;;;;5076158;28;20114;-62
2023/07/24 01:13:38;;;;;;;0.43;0.40;;;20.70;83.00;;;;;;5073721;28;20029;-62
2023/07/24 01:16:18;;;;;;;0.47;0.47;;;20.70;83.00;;;;;;5083192;28;20012;-61
2023/07/24 01:18:45;;;;;;;0.60;0.57;;;20.60;83.00;;;;;;5074529;28;20029;-62
2023/07/24 01:21:12;;;;;;;0.60;0.60;;;20.60;83.10;;;;;;5072960;28;20032;-61
2023/07/24 01:23:46;;;;;;;0.88;0.75;;;20.70;83.30;;;;;;5072481;28;20140;-61
2023/07/24 01:26:12;;;;;;;0.55;0.50;;;20.60;83.30;;;;;;5078346;28;20029;-61
2023/07/24 01:28:39;;;;;;;0.50;0.40;;;20.60;83.50;;;;;;5076971;28;20043;-61
2023/07/24 01:31:05;;;;;;;0.60;0.50;;;20.60;83.50;;;;;;5075753;28;20020;-62
2023/07/24 01:33:33;;;;;;;1.50;1.05;;;20.60;83.50;;;;;;5079265;28;20540;-62
2023/07/24 01:36:02;;;;;;;0.50;0.47;;;20.60;83.70;;;;;;5080001;28;20448;-62
2023/07/24 01:38:28;;;;;;;0.75;0.60;;;20.60;83.70;;;;;;5074029;28;20035;-62
2023/07/24 01:40:54;;;;;;;1.15;0.63;;;20.50;83.70;;;;;;5073870;28;20032;-62
2023/07/24 01:43:20;;;;;;;0.65;0.65;;;20.50;83.80;;;;;;5079687;28;20081;-61
2023/07/24 01:45:45;;;;;;;1.10;0.50;;;20.50;83.90;;;;;;5081524;28;20032;-62
2023/07/24 01:48:11;;;;;;;1.23;1.13;;;20.50;83.90;;;;;;5080889;28;20124;-61
2023/07/24 01:50:37;;;;;;;1.92;1.25;;;20.50;83.90;;;;;;5073419;28;20032;-62
2023/07/24 01:53:02;;;;;;;2.15;0.70;;;20.50;84.20;;;;;;5074689;28;20024;-62
2023/07/24 01:55:28;;;;;;;0.98;0.80;;;20.50;84.00;;;;;;5074780;28;20043;-62
2023/07/24 01:57:54;;;;;;;0.75;0.75;;;20.50;84.00;;;;;;5082156;28;20040;-62
2023/07/24 02:00:19;;;;;;;1.00;0.70;;;20.50;83.90;;;;;;5075958;28;20135;-62
2023/07/24 02:02:45;;;;;;;0.98;0.77;;;20.50;83.90;;;;;;5070806;28;20036;-61
2023/07/24 02:05:11;;;;;;;2.17;1.15;;;20.50;83.90;;;;;;5084206;28;20037;-61
2023/07/24 02:07:36;;;;;;;0.82;0.70;;;20.50;83.90;;;;;;5076829;28;20479;-61
2023/07/24 02:10:02;;;;;;;1.05;0.80;;;20.60;83.90;;;;;;5082734;28;20029;-61
2023/07/24 02:12:28;;;;;;;0.60;0.60;;;20.60;83.90;;;;;;5076008;28;20071;-62
2023/07/24 02:14:54;;;;;;;1.40;1.02;;;20.60;83.90;;;;;;5081843;28;20111;-61
2023/07/24 02:17:20;;;;;;;1.73;0.98;;;20.60;84.00;;;;;;5078774;28;20451;-62
2023/07/24 02:19:46;;;;;;;0.60;0.60;;;20.50;84.00;;;;;;5078323;28;20107;-62
2023/07/24 02:22:12;;;;;;;1.45;1.00;;;20.50;84.10;;;;;;5085822;28;20566;-61
2023/07/24 02:24:37;;;;;;;1.38;0.70;;;20.50;84.10;;;;;;5080803;28;20016;-62
2023/07/24 02:27:05;;;;;;;1.15;0.95;;;20.50;84.10;;;;;;5085978;28;20035;-61
2023/07/24 02:29:30;;;;;;;0.82;0.65;;;20.50;84.10;;;;;;5078428;28;20028;-61
2023/07/24 02:31:58;;;;;;;1.55;1.20;;;20.50;84.10;;;;;;5070300;28;20451;-62
2023/07/24 02:34:26;;;;;;;3.13;0.82;;;20.50;84.10;;;;;;5083710;28;20064;-61
2023/07/24 02:36:53;;;;;;;2.65;1.15;;;20.50;84.20;;;;;;5078091;28;20025;-61
2023/07/24 02:39:19;;;;;;;0.95;0.82;;;20.50;84.10;;;;;;5079212;28;20055;-61
2023/07/24 02:41:45;;;;;;;1.52;1.00;;;20.50;84.10;;;;;;5085723;28;20028;-62
2023/07/24 02:44:11;;;;;;;1.08;0.68;;;20.60;84.00;;;;;;5083571;28;20036;-62
2023/07/24 02:46:37;;;;;;;0.60;0.60;;;20.50;83.90;;;;;;5075409;28;20024;-61
2023/07/24 02:49:03;;;;;;;1.10;0.95;;;20.60;83.90;;;;;;5076499;28;20496;-61
2023/07/24 02:51:28;;;;;;;3.63;1.20;;;20.60;83.90;;;;;;5073870;28;20031;-62
2023/07/24 02:53:55;;;;;;;0.77;0.77;;;20.60;83.90;;;;;;5077979;28;20093;-62
2023/07/24 02:56:20;;;;;;;1.23;0.70;;;20.60;84.00;;;;;;5079227;28;20376;-61
2023/07/24 02:58:46;;;;;;;0.70;0.60;;;20.60;84.00;;;;;;5081524;28;20024;-62
2023/07/24 03:01:14;;;;;;;1.35;0.80;;;20.60;83.80;;;;;;5079491;28;20194;-61
2023/07/24 03:03:40;;;;;;;0.70;0.70;;;20.70;83.80;;;;;;5072082;28;20418;-62
2023/07/24 03:06:06;;;;;;;0.63;0.60;;;20.60;83.80;;;;;;5077545;28;20047;-61
2023/07/24 03:08:32;;;;;;;0.80;0.70;;;20.60;84.00;;;;;;5077903;28;20472;-62
2023/07/24 03:10:58;;;;;;;1.15;0.63;;;20.60;84.00;;;;;;5076315;28;20382;-62
2023/07/24 03:13:24;;;;;;;0.85;0.70;;;20.70;84.00;;;;;;5070542;28;20036;-62
2023/07/24 03:15:55;;;;;;;0.70;0.60;;;20.60;84.10;;;;;;5071184;28;20081;-61
2023/07/24 03:18:21;;;;;;;1.27;0.90;;;20.60;84.10;;;;;;5065638;28;20487;-61
2023/07/24 03:20:46;;;;;;;1.33;1.00;;;20.60;84.10;;;;;;5071276;28;20107;-61
2023/07/24 03:23:12;;;;;;;0.77;0.63;;;20.60;84.20;;;;;;5071467;28;20067;-61
2023/07/24 03:25:38;;;;;;;1.00;0.90;;;20.60;84.10;;;;;;5070357;28;20394;-61
2023/07/24 03:28:03;;;;;;;0.70;0.70;;;20.60;84.20;;;;;;5070410;28;20036;-61
2023/07/24 03:30:29;;;;;;;1.38;0.98;;;20.60;84.20;;;;;;5075209;28;20060;-62
2023/07/24 03:32:55;;;;;;;1.50;1.00;;;20.60;84.20;;;;;;5071644;28;20074;-61
2023/07/24 03:35:21;;;;;;;1.15;0.90;;;20.60;84.30;;;;;;5079850;28;20032;-60
2023/07/24 03:37:46;;;;;;;1.25;0.80;;;20.50;84.30;;;;;;5070612;28;20090;-61
2023/07/24 03:40:12;;;;;;;1.33;1.00;;;20.50;84.70;;;;;;5076416;28;20427;-62
2023/07/24 03:42:38;;;;;;;1.33;1.20;;;20.40;84.70;;;;;;5073748;28;20090;-62
2023/07/24 03:45:04;;;;;;;2.33;1.50;;;20.40;85.00;;;;;;5068738;28;20191;-62
2023/07/24 03:47:29;;;;;;;1.75;1.02;;;20.30;85.10;;;;;;5065069;28;20037;-61
2023/07/24 03:49:55;;;;;;;1.23;1.02;;;20.40;85.10;;;;;;5068966;28;20071;-62
2023/07/24 03:52:21;;;;;;;3.20;1.10;;;20.40;85.20;;;;;;5073100;28;20413;-61
2023/07/24 03:54:46;;;;;;;1.85;1.10;;;20.30;85.20;;;;;;5074807;28;20056;-62
2023/07/24 03:57:12;;;;;;;1.77;1.23;;;20.30;85.20;;;;;;5074886;28;20857;-62
2023/07/24 03:59:47;;;;;;;1.55;1.00;;;20.30;85.20;;;;;;5069068;28;20013;-62
2023/07/24 04:02:13;;;;;;;1.52;1.27;;;20.20;85.20;;;;;;5062250;28;20388;-62
2023/07/24 04:04:38;;;;;;;1.42;1.10;;;20.30;85.20;;;;;;5080022;28;20117;-62
2023/07/24 04:07:05;;;;;;;1.80;1.30;;;20.30;85.10;;;;;;5076908;28;20055;-62
2023/07/24 04:09:30;;;;;;;1.25;0.77;;;20.30;85.20;;;;;;5075313;28;20397;-62
2023/07/24 04:11:56;;;;;;;2.58;1.02;;;20.20;85.10;;;;;;5077103;28;20024;-62
2023/07/24 04:14:22;;;;;;;1.75;1.00;;;20.30;85.20;;;;;;5081067;28;20040;-61
2023/07/24 04:16:48;;;;;;;1.08;0.98;;;20.20;85.00;;;;;;5051243;28;20097;-62
2023/07/24 04:19:13;;;;;;;1.60;1.10;;;20.30;85.10;;;;;;5072690;28;20040;-62
2023/07/24 04:21:39;;;;;;;2.15;1.27;;;20.20;85.10;;;;;;5060263;28;20694;-62
2023/07/24 04:24:05;;;;;;;1.13;0.90;;;20.20;85.10;;;;;;5073330;28;20043;-62
2023/07/24 04:26:30;;;;;;;1.58;1.15;;;20.20;85.20;;;;;;5070557;28;20048;-62
2023/07/24 04:28:56;;;;;;;1.10;1.00;;;20.20;85.10;;;;;;5078223;28;20483;-62
2023/07/24 04:31:22;;;;;;;0.93;0.63;;;20.10;85.10;;;;;;5076443;28;20111;-62
2023/07/24 04:33:54;;;;;;;1.30;1.17;;;20.10;85.20;;;;;;5076366;28;20028;-62
2023/07/24 04:36:20;;;;;;;1.33;0.80;;;20.10;85.20;;;;;;5070628;28;20025;-62
2023/07/24 04:38:47;;;;;;;1.50;1.05;;;20.10;85.20;;;;;;5080385;28;20028;-62
2023/07/24 04:41:12;;;;;;;1.27;0.90;;;20.10;85.10;;;;;;5080706;28;20156;-62
2023/07/24 04:43:38;;;;;;;2.10;1.00;;;20.10;85.10;;;;;;5083905;28;20108;-62
2023/07/24 04:46:04;;;;;;;1.20;1.10;;;20.00;85.00;;;;;;5077674;28;20055;-62
2023/07/24 04:48:29;;;;;;;1.50;1.13;;;20.00;85.00;;;;;;5079182;28;20475;-62
2023/07/24 04:50:55;;;;;;;1.55;1.08;;;20.00;85.20;;;;;;5080471;28;20028;-62
2023/07/24 04:53:22;;;;;;;2.28;1.50;;;20.00;85.20;;;;;;5078338;28;20495;-62
2023/07/24 04:55:47;;;;;;;2.20;1.30;;;20.00;85.20;;;;;;5077766;28;20095;-62
2023/07/24 04:58:13;;;;;;;0.80;0.80;;;20.00;85.10;;;;;;5081833;28;20035;-62
2023/07/24 05:00:38;;;;;;;1.73;1.25;;;20.00;85.00;;;;;;5058930;28;20106;-62
2023/07/24 05:03:05;;;;;;;2.90;0.90;;;20.10;85.00;;;;;;5075754;28;20977;-62
2023/07/24 05:05:31;;;;;;;1.48;1.02;;;20.10;85.00;;;;;;5071777;28;20028;-62
2023/07/24 05:07:57;;;;;;;1.58;1.05;;;20.10;85.00;;;;;;5074506;28;20032;-62
2023/07/24 05:10:23;;;;;;;1.92;1.42;;;20.00;85.10;;;;;;5079975;28;20454;-62
2023/07/24 05:12:48;;;;;;;1.48;1.23;;;20.00;85.20;;;;;;5078148;28;20020;-62
2023/07/24 05:15:16;;;;;;;2.38;1.17;;;19.90;85.20;;;;;;5079126;28;20032;-62
2023/07/24 05:17:43;;;;;;;1.65;1.13;;;19.90;85.30;;;;;;5071778;28;20132;-62
2023/07/24 05:20:09;;;;;;;1.35;1.08;;;19.80;85.40;;;;;;5075758;28;20016;-62
2023/07/24 05:22:35;;;;;;;1.30;1.20;;;19.90;85.40;;;;;;5072332;28;20083;-62
2023/07/24 05:25:01;;;;;;;1.10;0.90;;;19.90;85.30;;;;;;5076539;28;20052;-62
2023/07/24 05:27:26;;;;;;;1.02;0.90;;;19.90;85.30;;;;;;5077072;28;20029;-62
2023/07/24 05:29:52;;;;;;;1.25;1.10;;;19.90;85.10;;;;;;5075709;28;20526;-62
2023/07/24 05:32:18;;;;;;;2.00;1.33;;;20.00;85.10;;;;;;5075751;28;20392;-62
2023/07/24 05:34:43;;;;;;;1.80;1.40;;;20.00;85.00;;;;;;5077394;28;20036;-62
2023/07/24 05:37:09;;;;;;;1.67;1.25;;;20.00;84.90;;;;;;5074425;28;20413;-63
2023/07/24 05:39:35;;;;;;;1.38;1.27;;;19.90;84.80;;;;;;5076282;28;20031;-62
2023/07/24 05:42:01;;;;;;;1.95;1.05;;;20.00;84.90;;;;;;5076129;28;20021;-63
2023/07/24 05:44:26;;;;;;;1.92;1.48;;;20.00;85.00;;;;;;5077941;28;20082;-62
2023/07/24 05:46:52;;;;;;;1.67;1.40;;;20.00;84.80;;;;;;5076290;28;20028;-63
2023/07/24 05:49:18;;;;;;;2.47;1.27;;;20.00;84.90;;;;;;5075412;28;20107;-62
2023/07/24 05:51:43;;;;;;;1.65;1.20;;;20.00;84.80;;;;;;5070293;28;20138;-62
2023/07/24 05:54:09;;;;;;;1.98;1.77;;;20.10;84.80;;;;;;5072134;28;20071;-62
2023/07/24 05:56:35;;;;;;;1.65;1.27;;;20.00;84.70;;;;;;5072338;28;20056;-62
2023/07/24 05:59:00;;;;;;;2.67;2.05;;;20.00;84.80;;;;;;5079697;28;20032;-63
2023/07/24 06:01:26;;;;;;;2.67;1.50;;;20.00;84.80;;;;;;5072580;28;20052;-62
2023/07/24 06:03:51;;;;;;;2.47;1.73;;;20.10;84.80;;;;;;5072970;28;20033;-62
2023/07/24 06:06:17;;;;;;;2.95;1.50;;;20.00;84.80;;;;;;5067122;28;20483;-62
2023/07/24 06:08:43;;;;;;;4.55;2.15;;;20.10;84.70;;;;;;5070306;28;20569;-62
2023/07/24 06:11:10;;;;;;;3.15;2.15;;;20.10;84.80;;;;;;5074389;28;20039;-62
2023/07/24 06:13:35;;;;;;;6.07;1.98;;;20.00;84.80;;;;;;5071442;28;20036;-63
2023/07/24 06:16:01;;;;;;;1.65;1.40;;;20.00;84.90;;;;;;5079543;28;20081;-62
2023/07/24 06:18:27;;;;;;;2.25;1.38;;;19.90;85.00;;;;;;5079970;28;20025;-62
2023/07/24 06:20:53;;;;;;;1.73;1.38;;;19.90;85.20;;;;;;5084665;28;20024;-62
2023/07/24 06:23:19;;;;;;;2.60;1.83;;;19.90;85.20;;;;;;5079395;28;20129;-62
2023/07/24 06:25:45;;;;;;;2.05;1.48;;;19.90;85.10;;;;;;5070828;28;20137;-62
2023/07/24 06:28:10;;;;;;;1.88;1.50;;;19.90;85.00;;;;;;5063030;28;20040;-62
2023/07/24 06:30:38;;;;;;;4.07;1.55;;;19.90;84.90;;;;;;5074331;28;20043;-62
2023/07/24 06:33:04;;;;;;;3.72;1.98;;;20.00;84.90;;;;;;5073473;28;20138;-62
2023/07/24 06:35:30;;;;;;;2.20;1.42;;;20.00;84.80;;;;;;5068991;28;20154;-62
2023/07/24 06:37:55;;;;;;;2.38;1.35;;;20.00;84.80;;;;;;5066923;28;20386;-62
2023/07/24 06:40:21;;;;;;;3.28;2.22;;;20.00;84.60;;;;;;5077697;28;20023;-62
2023/07/24 06:42:47;;;;;;;2.47;1.92;;;20.00;84.30;;;;;;5063150;28;20028;-62
2023/07/24 06:45:12;;;;;;;3.90;1.95;;;20.00;84.60;;;;;;5069928;28;20028;-62
2023/07/24 06:47:38;;;;;;;2.70;1.63;;;20.10;84.70;;;;;;5071069;28;20085;-62
2023/07/24 06:50:04;;;;;;;5.57;1.92;;;20.20;84.60;;;;;;5073580;28;20037;-62
2023/07/24 06:52:33;;;;;;;3.42;2.03;;;20.30;84.30;;;;;;5074836;28;20089;-62
2023/07/24 06:54:59;;;;;;;2.28;1.40;;;20.40;84.00;;;;;;5075449;28;20388;-64
2023/07/24 06:57:25;;;;;;;2.42;1.30;;;20.50;84.00;;;;;;5070607;28;20036;-64
2023/07/24 06:59:51;;;;;;;2.65;2.00;;;20.40;83.60;;;;;;5080401;28;20037;-64
2023/07/24 07:02:17;;;;;;;1.80;1.58;;;20.40;83.60;;;;;;5076021;28;20032;-64
2023/07/24 07:04:42;;;;;;;5.05;1.40;;;20.40;83.60;;;;;;5078180;28;20066;-64
2023/07/24 07:07:08;;;;;;;3.58;2.10;;;20.30;83.70;;;;;;5070508;28;20040;-62
2023/07/24 07:09:34;;;;;;;3.17;2.25;;;20.30;83.50;;;;;;5072134;28;20029;-63
2023/07/24 07:11:59;;;;;;;2.03;1.80;;;20.20;83.60;;;;;;5083486;28;20043;-63
2023/07/24 07:14:25;;;;;;;2.92;2.22;;;20.20;83.80;;;;;;5077799;28;20401;-63
2023/07/24 07:16:51;;;;;;;1.73;1.25;;;20.10;83.70;;;;;;5067434;28;20106;-63
2023/07/24 07:19:16;;;;;;;4.63;2.58;;;20.20;83.90;;;;;;5068635;28;20158;-62
2023/07/24 07:21:42;;;;;;;3.05;2.00;;;20.40;83.60;;;;;;5058817;28;20060;-63
2023/07/24 07:24:07;;;;;;;3.05;2.45;;;20.50;83.50;;;;;;5079922;28;20408;-63
2023/07/24 07:26:33;;;;;;;3.72;2.67;;;20.60;83.10;;;;;;5077941;28;20357;-62
2023/07/24 07:28:59;;;;;;;3.55;2.70;;;20.60;82.50;;;;;;5072507;28;20047;-63
2023/07/24 07:31:25;;;;;;;3.85;2.25;;;20.60;82.40;;;;;;5070786;28;20028;-64
2023/07/24 07:33:51;;;;;;;3.33;2.50;;;20.70;82.30;;;;;;5073813;28;20041;-63
2023/07/24 07:36:17;;;;;;;2.38;1.95;;;20.70;82.20;;;;;;5073334;28;20062;-64
2023/07/24 07:38:43;;;;;;;3.63;2.65;;;20.90;82.10;;;;;;5080206;28;20029;-66
2023/07/24 07:41:09;;;;;;;6.15;2.30;;;21.00;81.40;;;;;;5078396;28;20438;-65
2023/07/24 07:43:36;;;;;;;3.05;2.25;;;21.00;80.40;;;;;;5075287;28;20039;-66
2023/07/24 07:46:02;;;;;;;3.00;1.90;;;21.00;80.60;;;;;;5073203;28;20032;-66
2023/07/24 07:48:28;;;;;;;3.35;2.05;;;21.10;80.70;;;;;;5072995;28;20445;-61
2023/07/24 07:50:54;;;;;;;3.97;2.70;;;21.10;80.60;;;;;;5078025;28;20051;-66
2023/07/24 07:53:20;;;;;;;3.05;2.58;;;21.20;80.30;;;;;;5074785;28;20048;-65
2023/07/24 07:55:45;;;;;;;4.38;2.42;;;21.20;80.00;;;;;;5076756;28;20135;-65
2023/07/24 07:58:11;;;;;;;2.80;1.83;;;21.20;80.10;;;;;;5072590;28;20024;-66
2023/07/24 08:00:39;;;;;;;4.68;2.75;;;21.20;80.20;;;;;;5081137;28;20116;-64
2023/07/24 08:03:05;;;;;;;3.53;2.15;;;21.30;80.10;;;;;;5071398;28;20044;-63
2023/07/24 08:05:32;;;;;;;5.38;3.17;;;21.40;79.90;;;;;;5075647;28;20488;-62
2023/07/24 08:07:57;;;;;;;2.67;1.90;;;21.50;79.30;;;;;;5074427;28;20039;-62
2023/07/24 08:10:23;;;;;;;4.32;2.80;;;21.50;79.10;;;;;;5077785;28;20115;-61
2023/07/24 08:12:49;;;;;;;4.63;2.45;;;21.40;78.10;;;;;;5077710;28;20129;-61
2023/07/24 08:15:15;;;;;;;6.93;3.40;;;21.20;78.60;;;;;;5075984;28;20031;-61
2023/07/24 08:17:40;;;;;;;4.60;3.15;;;21.10;79.10;;;;;;5079777;28;20082;-61
2023/07/24 08:20:06;;;;;;;5.68;2.80;;;20.90;79.60;;;;;;5071861;28;20055;-61
2023/07/24 08:22:32;;;;;;;8.15;3.60;;;20.80;79.70;;;;;;5082144;28;20036;-61
2023/07/24 08:24:58;;;;;;;4.18;2.83;;;20.70;80.00;;;;;;5076434;28;20037;-61
2023/07/24 08:27:24;;;;;;;4.38;2.10;;;20.60;80.40;;;;;;5075499;28;20124;-61
2023/07/24 08:29:52;;;;;;;3.58;2.03;;;20.70;80.60;;;;;;5078400;28;20048;-62
2023/07/24 08:32:19;;;;;;;4.50;2.88;;;20.80;80.70;;;;;;5078192;28;20032;-62
2023/07/24 08:34:44;;;;;;;5.57;2.75;;;20.90;80.60;;;;;;5073847;28;20122;-62
2023/07/24 08:37:11;;;;;;;5.50;2.97;;;21.10;80.20;;;;;;5077925;28;20028;-62
2023/07/24 08:39:38;;;;;;;3.50;2.55;;;21.00;80.20;;;;;;5073719;28;20554;-62
2023/07/24 08:42:12;;;;;;;3.80;2.33;;;21.10;80.40;;;;;;5071611;28;20025;-62
2023/07/24 08:44:38;;;;;;;4.13;2.42;;;21.30;80.10;;;;;;5069216;28;20042;-62
2023/07/24 08:47:06;;;;;;;4.40;2.25;;;21.40;79.90;;;;;;5077323;28;20727;-61
2023/07/24 08:49:33;;;;;;;3.55;2.28;;;21.40;79.80;;;;;;5074215;28;20486;-61
2023/07/24 08:51:59;;;;;;;3.38;2.38;;;21.50;79.60;;;;;;5079391;28;20024;-61
2023/07/24 08:54:26;;;;;;;6.38;3.75;;;21.50;79.60;;;;;;5076194;28;20035;-60
2023/07/24 08:56:52;;;;;;;3.22;2.60;;;21.60;79.30;;;;;;5078926;28;20383;-61
2023/07/24 08:59:18;;;;;;;4.00;3.00;;;21.70;79.50;;;;;;5061484;28;20059;-62
2023/07/24 09:01:44;;;;;;;2.80;2.00;;;21.80;77.40;;;;;;5071757;28;20230;-62
2023/07/24 09:04:10;;;;;;;3.53;2.22;;;21.90;76.80;;;;;;5075330;28;20075;-62
2023/07/24 09:06:37;;;;;;;3.63;2.42;;;22.00;76.50;;;;;;5081009;28;20491;-61
2023/07/24 09:09:03;;;;;;;3.58;2.22;;;22.10;76.00;;;;;;5079618;28;20024;-61
2023/07/24 09:11:28;;;;;;;3.10;2.15;;;22.30;75.90;;;;;;5076563;28;20111;-61
2023/07/24 09:13:54;;;;;;;3.80;2.45;;;22.40;75.20;;;;;;5081601;28;20126;-61
2023/07/24 09:16:24;;;;;;;3.47;2.28;;;22.40;74.90;;;;;;5081394;28;20086;-61
2023/07/24 09:18:53;;;;;;;4.63;2.92;;;22.30;75.10;;;;;;5071370;28;20020;-62
2023/07/24 09:21:32;;;;;;;3.15;2.08;;;22.30;74.90;;;;;;5072555;28;20491;-61
2023/07/24 09:24:09;;;;;;;2.72;1.73;;;22.30;74.80;;;;;;5074147;28;20122;-61
2023/07/24 09:26:45;;;;;;;5.25;2.65;;;22.20;74.80;;;;;;5067850;28;20032;-62
2023/07/24 09:29:11;;;;;;;3.05;1.95;;;22.40;74.90;;;;;;5078782;28;20045;-61
2023/07/24 09:31:37;;;;;;;3.10;2.13;;;22.60;74.20;;;;;;5077275;28;20035;-61
2023/07/24 09:34:02;;;;;;;2.22;1.70;;;22.70;74.00;;;;;;5074766;28;20044;-61
2023/07/24 09:36:38;;;;;;;2.90;2.40;;;22.90;73.40;;;;;;5076095;28;20434;-61
2023/07/24 09:39:06;;;;;;;4.40;1.98;;;23.10;73.30;;;;;;5074006;28;20016;-61
2023/07/24 09:41:31;;;;;;;3.42;2.10;;;23.20;72.20;;;;;;5079245;28;20143;-61
2023/07/24 09:44:00;;;;;;;2.58;1.92;;;23.20;71.50;;;;;;5069221;28;20111;-61
2023/07/24 09:46:27;;;;;;;1.92;1.80;;;23.20;70.70;;;;;;5072212;28;20239;-61
2023/07/24 09:48:55;;;;;;;4.90;2.47;;;23.10;70.70;;;;;;5072003;28;20036;-60
2023/07/24 09:51:21;;;;;;;3.83;2.17;;;23.20;70.00;;;;;;5078249;28;20078;-61
2023/07/24 09:53:58;;;;;;;3.70;2.38;;;23.30;69.30;;;;;;5075306;28;20407;-61
2023/07/24 09:56:25;;;;;;;2.58;2.05;;;23.20;69.20;;;;;;5066556;28;20203;-61
2023/07/24 09:58:54;;;;;;;2.35;1.65;;;23.00;68.30;;;;;;5067529;28;20017;-61
2023/07/24 10:01:20;;;;;;;2.42;1.65;;;22.80;69.60;;;;;;5079941;28;20036;-61
2023/07/24 10:03:48;;;;;;;3.70;2.13;;;22.70;70.10;;;;;;5069419;28;20077;-61
2023/07/24 10:06:16;;;;;;;3.58;1.85;;;22.60;69.30;;;;;;5075270;28;20033;-61
2023/07/24 10:08:43;;;;;;;7.15;2.70;;;22.50;69.80;;;;;;5064035;28;20083;-61
2023/07/24 10:11:11;;;;;;;1.55;1.45;;;22.50;70.20;;;;;;5070842;28;20095;-60
2023/07/24 10:13:37;;;;;;;3.05;1.55;;;22.60;70.60;;;;;;5072670;28;20537;-61
2023/07/24 10:16:06;;;;;;;1.75;1.23;;;22.70;70.40;;;;;;5080421;28;20044;-60
2023/07/24 10:18:34;;;;;;;2.03;1.70;;;22.70;70.10;;;;;;5068386;28;20102;-61
2023/07/24 10:21:06;;;;;;;3.13;1.90;;;22.60;70.30;;;;;;5076237;28;20024;-61
2023/07/24 10:23:34;;;;;;;;;;;22.50;70.50;;;;;;5078059;28;20503;-61
2023/07/24 10:26:07;;;;;;;3.13;2.13;;;22.40;70.90;;;;;;5065334;28;19957;-61
2023/07/24 10:28:41;;;;;;;2.00;1.65;;;22.30;71.30;;;;;;5073785;28;20475;-62
2023/07/24 10:31:28;;;;;;;9.77;2.70;;;22.30;71.70;;;;;;5062725;28;20454;-63
2023/07/24 10:33:55;;;;;;;2.53;2.13;;;22.30;71.80;;;;;;5071517;28;20047;-61
2023/07/24 10:36:22;;;;;;;2.65;1.75;;;22.40;71.50;;;;;;5076972;28;20075;-66
2023/07/24 10:38:56;;;;;;;2.05;1.83;;;22.40;70.80;;;;;;5080220;28;20024;-60
2023/07/24 10:41:22;;;;;;;6.65;2.38;;;22.40;71.00;;;;;;5073874;28;20059;-64
2023/07/24 10:43:50;;;;;;;3.03;1.80;;;22.40;70.10;;;;;;5077096;28;20501;-61
2023/07/24 10:46:18;;;;;;;2.03;1.48;;;22.30;70.10;;;;;;5069465;28;20501;-61
2023/07/24 10:48:50;;;;;;;2.40;1.67;;;22.30;71.20;;;;;;5071008;28;20532;-61
2023/07/24 10:51:16;;;;;;;4.80;1.85;;;22.30;70.60;;;;;;5073645;28;20482;-60
2023/07/24 10:53:49;;;;;;;2.58;1.67;;;22.30;70.60;;;;;;5071544;28;20413;-61
2023/07/24 10:56:16;;;;;;;4.45;2.45;;;22.30;71.40;;;;;;5073180;28;20441;-61
2023/07/24 10:58:42;;;;;;;2.75;1.58;;;22.30;70.60;;;;;;5073178;28;20017;-61
2023/07/24 11:01:10;;;;;;;1.98;1.77;;;22.30;70.80;;;;;;5074786;28;20613;-61
2023/07/24 11:03:38;;;;;;;2.85;2.25;;;22.30;70.90;;;;;;5063906;28;20097;-61
2023/07/24 11:06:04;;;;;;;2.13;1.75;;;22.30;70.70;;;;;;5071153;28;20483;-61
2023/07/24 11:08:31;;;;;;;5.50;2.22;;;22.30;71.00;;;;;;5071504;28;20129;-60
2023/07/24 11:10:58;;;;;;;2.25;2.03;;;22.20;71.10;;;;;;5076028;28;20036;-60
2023/07/24 11:13:26;;;;;;;3.08;2.17;;;22.30;71.20;;;;;;5060999;28;20024;-60
2023/07/24 11:15:53;;;;;;;1.63;1.25;;;22.20;71.10;;;;;;5076621;28;20028;-60
2023/07/24 11:18:26;;;;;;;7.60;2.65;;;22.30;71.50;;;;;;5053938;28;20075;-61
2023/07/24 11:20:54;;;;;;;5.30;2.50;;;22.30;71.40;;;;;;5063704;28;20040;-61
2023/07/24 11:23:20;;;;;;;2.28;1.90;;;22.30;71.00;;;;;;5063138;28;20053;-61
2023/07/24 11:25:46;;;;;;;2.30;2.10;;;22.30;71.00;;;;;;5077895;28;20106;-61
2023/07/24 11:28:14;;;;;;;2.92;2.20;;;22.50;70.70;;;;;;5072513;28;20024;-61
2023/07/24 11:30:40;;;;;;;3.50;2.13;;;22.50;70.30;;;;;;5059853;28;20056;-61
2023/07/24 11:33:10;;;;;;;2.67;1.80;;;22.60;70.40;;;;;;5065407;28;20078;-61
2023/07/24 11:35:38;;;;;;;2.20;1.73;;;22.60;70.30;;;;;;5052610;28;20071;-61
2023/07/24 11:38:04;;;;;;;3.13;1.77;;;22.60;70.00;;;;;;5068876;28;20368;-60
2023/07/24 11:40:36;;;;;;;2.95;2.22;;;22.50;69.70;;;;;;5065414;28;20043;-60
2023/07/24 11:43:03;;;;;;;2.58;2.33;;;22.40;69.60;;;;;;5075919;28;20029;-59
2023/07/24 11:45:41;;;;;;;1.83;1.50;;;22.30;70.10;;;;;;5068904;28;20024;-60
2023/07/24 11:48:11;;;;;;;2.15;1.77;;;22.40;70.40;;;;;;5066536;28;20036;-60
2023/07/24 11:50:47;;;;;;;2.58;1.98;;;22.30;70.30;;;;;;5045822;28;20025;-60
2023/07/24 11:53:24;;;;;;;2.22;1.60;;;22.30;70.20;;;;;;5060880;28;20075;-60
2023/07/24 11:55:51;;;;;;;2.78;2.00;;;22.40;70.50;;;;;;5069719;28;20531;-60
2023/07/24 11:58:18;;;;;;;1.77;1.48;;;22.50;70.30;;;;;;5071219;28;20028;-59
2023/07/24 12:00:46;;;;;;;2.65;1.75;;;22.70;69.80;;;;;;5058246;28;20037;-60
2023/07/24 12:03:12;;;;;;;2.40;1.83;;;22.80;69.30;;;;;;5069037;28;20688;-59
2023/07/24 12:05:42;;;;;;;2.40;1.85;;;22.90;69.00;;;;;;5069224;28;20033;-59
2023/07/24 12:08:08;;;;;;;2.83;1.95;;;22.90;68.90;;;;;;5069899;28;20051;-60
2023/07/24 12:10:37;;;;;;;2.20;1.83;;;23.00;68.60;;;;;;5073958;28;20037;-60
2023/07/24 12:13:03;;;;;;;2.78;2.13;;;23.10;68.60;;;;;;5073370;28;20028;-60
2023/07/24 12:15:29;;;;;;;3.25;2.15;;;23.10;68.70;;;;;;5078909;28;20031;-60
2023/07/24 12:17:56;;;;;;;3.78;2.47;;;23.20;68.30;;;;;;5078273;28;20031;-61
2023/07/24 12:20:22;;;;;;;2.42;1.77;;;23.30;67.30;;;;;;5080355;28;20032;-60
2023/07/24 12:22:48;;;;;;;1.98;1.38;;;23.20;67.70;;;;;;5076749;28;20033;-62
2023/07/24 12:25:15;;;;;;;3.10;2.33;;;23.40;68.00;;;;;;5069410;28;20443;-61
2023/07/24 12:27:42;;;;;;;2.83;1.85;;;23.60;66.90;;;;;;5087203;28;20024;-61
2023/07/24 12:30:08;;;;;;;2.65;2.10;;;23.80;66.10;;;;;;5083260;28;21082;-60
2023/07/24 12:32:34;;;;;;;6.43;1.92;;;23.90;65.40;;;;;;5076058;28;20468;-61
2023/07/24 12:35:00;;;;;;;2.38;1.30;;;24.00;64.80;;;;;;5074872;28;20044;-61
2023/07/24 12:37:26;;;;;;;2.60;1.52;;;23.80;64.70;;;;;;5079723;28;20024;-61
2023/07/24 12:39:52;;;;;;;3.20;1.85;;;23.70;65.30;;;;;;5069868;28;20047;-61
2023/07/24 12:42:17;;;;;;;3.47;1.90;;;23.60;65.00;;;;;;5079463;28;20024;-60
2023/07/24 12:44:44;;;;;;;2.03;1.40;;;23.50;65.10;;;;;;5072518;28;20039;-61